sensor_id;sensor_type;location;lat;lon;timestamp;P1;durP1;ratioP1;P2;durP2;ratioP2
77158;SDS011;66129;45.890;13.714;2023-02-28T00:01:16;8.32;;;4.93;;
77158;SDS011;66129;45.890;13.714;2023-02-28T00:03:41;8.50;;;4.45;;
77158;SDS011;66129;45.890;13.714;2023-02-28T00:06:07;8.45;;;4.75;;
77158;SDS011;66129;45.890;13.714;2023-02-28T00:08:34;6.88;;;4.18;;
77158;SDS011;66129;45.890;13.714;2023-02-28T00:11:08;7.13;;;4.45;;
77158;SDS011;66129;45.890;13.714;2023-02-28T00:13:38;7.32;;;4.55;;
77158;SDS011;66129;45.890;13.714;2023-02-28T00:16:07;7.55;;;4.18;;
77158;SDS011;66129;45.890;13.714;2023-02-28T00:18:35;6.78;;;4.38;;
77158;SDS011;66129;45.890;13.714;2023-02-28T00:21:01;7.53;;;4.20;;
77158;SDS011;66129;45.890;13.714;2023-02-28T00:23:26;9.43;;;4.72;;
77158;SDS011;66129;45.890;13.714;2023-02-28T00:25:52;5.55;;;4.47;;
77158;SDS011;66129;45.890;13.714;2023-02-28T00:28:18;8.32;;;4.65;;
77158;SDS011;66129;45.890;13.714;2023-02-28T00:30:44;8.65;;;4.88;;
77158;SDS011;66129;45.890;13.714;2023-02-28T00:33:10;8.77;;;4.78;;
77158;SDS011;66129;45.890;13.714;2023-02-28T00:35:35;7.63;;;4.55;;
77158;SDS011;66129;45.890;13.714;2023-02-28T00:38:01;8.43;;;4.95;;
77158;SDS011;66129;45.890;13.714;2023-02-28T00:40:27;8.20;;;4.22;;
77158;SDS011;66129;45.890;13.714;2023-02-28T00:42:54;6.78;;;4.40;;
77158;SDS011;66129;45.890;13.714;2023-02-28T00:45:19;6.97;;;4.50;;
77158;SDS011;66129;45.890;13.714;2023-02-28T00:47:47;9.48;;;4.28;;
77158;SDS011;66129;45.890;13.714;2023-02-28T00:50:23;8.77;;;4.65;;
77158;SDS011;66129;45.890;13.714;2023-02-28T00:52:49;7.47;;;4.63;;
77158;SDS011;66129;45.890;13.714;2023-02-28T00:55:15;6.50;;;4.18;;
77158;SDS011;66129;45.890;13.714;2023-02-28T00:57:40;9.45;;;4.68;;
77158;SDS011;66129;45.890;13.714;2023-02-28T01:00:06;9.38;;;4.70;;
77158;SDS011;66129;45.890;13.714;2023-02-28T01:02:33;10.95;;;5.22;;
77158;SDS011;66129;45.890;13.714;2023-02-28T01:04:59;8.40;;;5.63;;
77158;SDS011;66129;45.890;13.714;2023-02-28T01:07:24;10.93;;;5.32;;
77158;SDS011;66129;45.890;13.714;2023-02-28T01:09:50;8.82;;;4.60;;
77158;SDS011;66129;45.890;13.714;2023-02-28T01:12:15;7.57;;;4.68;;
77158;SDS011;66129;45.890;13.714;2023-02-28T01:14:41;9.82;;;5.63;;
77158;SDS011;66129;45.890;13.714;2023-02-28T01:17:07;7.90;;;4.80;;
77158;SDS011;66129;45.890;13.714;2023-02-28T01:19:33;7.45;;;4.93;;
77158;SDS011;66129;45.890;13.714;2023-02-28T01:22:02;8.30;;;4.28;;
77158;SDS011;66129;45.890;13.714;2023-02-28T01:24:28;7.32;;;4.60;;
77158;SDS011;66129;45.890;13.714;2023-02-28T01:26:54;12.35;;;6.00;;
77158;SDS011;66129;45.890;13.714;2023-02-28T01:29:20;13.45;;;5.63;;
77158;SDS011;66129;45.890;13.714;2023-02-28T01:31:46;9.85;;;5.95;;
77158;SDS011;66129;45.890;13.714;2023-02-28T01:34:11;10.13;;;5.55;;
77158;SDS011;66129;45.890;13.714;2023-02-28T01:36:37;11.18;;;5.75;;
77158;SDS011;66129;45.890;13.714;2023-02-28T01:39:02;12.10;;;5.70;;
77158;SDS011;66129;45.890;13.714;2023-02-28T01:41:29;13.48;;;5.35;;
77158;SDS011;66129;45.890;13.714;2023-02-28T01:44:06;13.27;;;5.90;;
77158;SDS011;66129;45.890;13.714;2023-02-28T01:46:52;8.35;;;4.65;;
77158;SDS011;66129;45.890;13.714;2023-02-28T01:49:17;9.38;;;4.43;;
77158;SDS011;66129;45.890;13.714;2023-02-28T01:51:47;10.45;;;5.82;;
77158;SDS011;66129;45.890;13.714;2023-02-28T01:54:18;11.35;;;4.72;;
77158;SDS011;66129;45.890;13.714;2023-02-28T01:57:06;8.65;;;4.80;;
77158;SDS011;66129;45.890;13.714;2023-02-28T02:02:23;7.45;;;4.78;;
77158;SDS011;66129;45.890;13.714;2023-02-28T02:05:00;12.63;;;5.10;;
77158;SDS011;66129;45.890;13.714;2023-02-28T02:07:31;9.18;;;4.25;;
77158;SDS011;66129;45.890;13.714;2023-02-28T02:10:19;9.10;;;5.75;;
77158;SDS011;66129;45.890;13.714;2023-02-28T02:18:26;6.65;;;3.33;;
77158;SDS011;66129;45.890;13.714;2023-02-28T02:21:14;8.40;;;4.88;;
77158;SDS011;66129;45.890;13.714;2023-02-28T02:32:40;9.52;;;4.80;;
77158;SDS011;66129;45.890;13.714;2023-02-28T02:35:15;8.32;;;4.28;;
77158;SDS011;66129;45.890;13.714;2023-02-28T02:38:14;9.30;;;5.88;;
77158;SDS011;66129;45.890;13.714;2023-02-28T02:40:51;8.23;;;4.88;;
77158;SDS011;66129;45.890;13.714;2023-02-28T02:45:49;10.82;;;4.65;;
77158;SDS011;66129;45.890;13.714;2023-02-28T02:48:17;6.35;;;4.43;;
77158;SDS011;66129;45.890;13.714;2023-02-28T02:50:50;8.90;;;5.18;;
77158;SDS011;66129;45.890;13.714;2023-02-28T02:53:27;9.75;;;4.65;;
77158;SDS011;66129;45.890;13.714;2023-02-28T02:55:57;13.40;;;5.93;;
77158;SDS011;66129;45.890;13.714;2023-02-28T02:58:26;9.05;;;5.15;;
77158;SDS011;66129;45.890;13.714;2023-02-28T03:00:57;9.95;;;4.22;;
77158;SDS011;66129;45.890;13.714;2023-02-28T03:03:27;8.65;;;5.45;;
77158;SDS011;66129;45.890;13.714;2023-02-28T03:05:55;9.07;;;5.68;;
77158;SDS011;66129;45.890;13.714;2023-02-28T03:08:25;8.90;;;4.57;;
77158;SDS011;66129;45.890;13.714;2023-02-28T03:10:52;8.32;;;4.97;;
77158;SDS011;66129;45.890;13.714;2023-02-28T03:18:54;7.97;;;5.00;;
77158;SDS011;66129;45.890;13.714;2023-02-28T03:26:53;9.93;;;6.05;;
77158;SDS011;66129;45.890;13.714;2023-02-28T03:29:32;11.23;;;5.43;;
77158;SDS011;66129;45.890;13.714;2023-02-28T03:32:05;9.88;;;5.85;;
77158;SDS011;66129;45.890;13.714;2023-02-28T03:34:46;9.43;;;5.30;;
77158;SDS011;66129;45.890;13.714;2023-02-28T03:37:18;9.52;;;5.35;;
77158;SDS011;66129;45.890;13.714;2023-02-28T03:39:49;8.20;;;5.40;;
77158;SDS011;66129;45.890;13.714;2023-02-28T03:42:22;7.95;;;5.75;;
77158;SDS011;66129;45.890;13.714;2023-02-28T03:44:53;8.35;;;5.05;;
77158;SDS011;66129;45.890;13.714;2023-02-28T03:47:24;7.47;;;4.05;;
77158;SDS011;66129;45.890;13.714;2023-02-28T03:52:36;9.52;;;4.47;;
77158;SDS011;66129;45.890;13.714;2023-02-28T03:55:08;7.53;;;4.75;;
77158;SDS011;66129;45.890;13.714;2023-02-28T03:58:20;8.25;;;5.35;;
77158;SDS011;66129;45.890;13.714;2023-02-28T04:00:47;6.38;;;5.10;;
77158;SDS011;66129;45.890;13.714;2023-02-28T04:03:17;10.30;;;6.13;;
77158;SDS011;66129;45.890;13.714;2023-02-28T04:05:45;8.45;;;5.22;;
77158;SDS011;66129;45.890;13.714;2023-02-28T04:08:18;8.38;;;4.60;;
77158;SDS011;66129;45.890;13.714;2023-02-28T04:10:45;8.65;;;5.40;;
77158;SDS011;66129;45.890;13.714;2023-02-28T04:13:18;5.80;;;4.25;;
77158;SDS011;66129;45.890;13.714;2023-02-28T04:15:43;9.60;;;4.90;;
77158;SDS011;66129;45.890;13.714;2023-02-28T04:18:09;8.18;;;4.95;;
77158;SDS011;66129;45.890;13.714;2023-02-28T04:20:34;6.38;;;4.00;;
77158;SDS011;66129;45.890;13.714;2023-02-28T04:23:01;9.77;;;5.18;;
77158;SDS011;66129;45.890;13.714;2023-02-28T04:25:27;8.40;;;5.70;;
77158;SDS011;66129;45.890;13.714;2023-02-28T04:27:52;8.07;;;4.63;;
77158;SDS011;66129;45.890;13.714;2023-02-28T04:30:18;9.35;;;5.35;;
77158;SDS011;66129;45.890;13.714;2023-02-28T04:32:43;7.43;;;4.53;;
77158;SDS011;66129;45.890;13.714;2023-02-28T04:35:09;5.82;;;4.22;;
77158;SDS011;66129;45.890;13.714;2023-02-28T04:37:37;7.25;;;4.82;;
77158;SDS011;66129;45.890;13.714;2023-02-28T04:40:03;5.38;;;3.85;;
77158;SDS011;66129;45.890;13.714;2023-02-28T04:42:29;9.60;;;5.30;;
77158;SDS011;66129;45.890;13.714;2023-02-28T04:45:01;13.75;;;5.25;;
77158;SDS011;66129;45.890;13.714;2023-02-28T04:47:27;11.10;;;5.60;;
77158;SDS011;66129;45.890;13.714;2023-02-28T04:49:53;8.30;;;4.18;;
77158;SDS011;66129;45.890;13.714;2023-02-28T04:52:19;7.50;;;3.90;;
77158;SDS011;66129;45.890;13.714;2023-02-28T04:54:44;7.50;;;4.20;;
77158;SDS011;66129;45.890;13.714;2023-02-28T04:57:10;10.35;;;5.10;;
77158;SDS011;66129;45.890;13.714;2023-02-28T04:59:35;10.25;;;5.50;;
77158;SDS011;66129;45.890;13.714;2023-02-28T05:02:01;8.13;;;4.85;;
77158;SDS011;66129;45.890;13.714;2023-02-28T05:04:31;9.80;;;5.18;;
77158;SDS011;66129;45.890;13.714;2023-02-28T05:06:59;10.10;;;5.22;;
77158;SDS011;66129;45.890;13.714;2023-02-28T05:09:25;9.20;;;4.43;;
77158;SDS011;66129;45.890;13.714;2023-02-28T05:11:51;11.00;;;5.18;;
77158;SDS011;66129;45.890;13.714;2023-02-28T05:14:16;8.82;;;4.55;;
77158;SDS011;66129;45.890;13.714;2023-02-28T05:16:42;7.57;;;4.85;;
77158;SDS011;66129;45.890;13.714;2023-02-28T05:19:07;7.25;;;5.03;;
77158;SDS011;66129;45.890;13.714;2023-02-28T05:21:37;9.18;;;4.82;;
77158;SDS011;66129;45.890;13.714;2023-02-28T05:24:11;9.82;;;5.25;;
77158;SDS011;66129;45.890;13.714;2023-02-28T05:26:38;8.55;;;5.05;;
77158;SDS011;66129;45.890;13.714;2023-02-28T05:29:06;8.80;;;5.00;;
77158;SDS011;66129;45.890;13.714;2023-02-28T05:31:32;7.25;;;4.60;;
77158;SDS011;66129;45.890;13.714;2023-02-28T05:33:58;8.55;;;5.53;;
77158;SDS011;66129;45.890;13.714;2023-02-28T05:36:24;8.23;;;4.88;;
77158;SDS011;66129;45.890;13.714;2023-02-28T05:38:49;9.02;;;5.57;;
77158;SDS011;66129;45.890;13.714;2023-02-28T05:41:16;10.23;;;4.43;;
77158;SDS011;66129;45.890;13.714;2023-02-28T05:43:44;8.00;;;4.47;;
77158;SDS011;66129;45.890;13.714;2023-02-28T05:46:19;6.53;;;4.47;;
77158;SDS011;66129;45.890;13.714;2023-02-28T05:48:46;6.93;;;4.28;;
77158;SDS011;66129;45.890;13.714;2023-02-28T05:51:13;6.00;;;3.97;;
77158;SDS011;66129;45.890;13.714;2023-02-28T05:53:40;8.02;;;4.22;;
77158;SDS011;66129;45.890;13.714;2023-02-28T05:56:06;9.45;;;4.07;;
77158;SDS011;66129;45.890;13.714;2023-02-28T05:58:32;6.60;;;4.40;;
77158;SDS011;66129;45.890;13.714;2023-02-28T06:01:00;7.30;;;3.85;;
77158;SDS011;66129;45.890;13.714;2023-02-28T06:03:43;8.38;;;5.22;;
77158;SDS011;66129;45.890;13.714;2023-02-28T06:06:09;6.53;;;3.97;;
77158;SDS011;66129;45.890;13.714;2023-02-28T06:08:34;8.73;;;4.30;;
77158;SDS011;66129;45.890;13.714;2023-02-28T06:11:02;17.42;;;6.85;;
77158;SDS011;66129;45.890;13.714;2023-02-28T06:13:28;11.52;;;7.05;;
77158;SDS011;66129;45.890;13.714;2023-02-28T06:15:54;11.07;;;6.03;;
77158;SDS011;66129;45.890;13.714;2023-02-28T06:18:23;16.70;;;10.10;;
77158;SDS011;66129;45.890;13.714;2023-02-28T06:20:52;15.88;;;8.98;;
77158;SDS011;66129;45.890;13.714;2023-02-28T06:23:19;8.52;;;5.70;;
77158;SDS011;66129;45.890;13.714;2023-02-28T06:25:45;11.38;;;7.60;;
77158;SDS011;66129;45.890;13.714;2023-02-28T06:28:14;7.55;;;4.38;;
77158;SDS011;66129;45.890;13.714;2023-02-28T06:30:41;7.97;;;4.43;;
77158;SDS011;66129;45.890;13.714;2023-02-28T06:33:06;7.68;;;4.10;;
77158;SDS011;66129;45.890;13.714;2023-02-28T06:35:35;12.02;;;4.80;;
77158;SDS011;66129;45.890;13.714;2023-02-28T06:38:09;13.10;;;6.25;;
77158;SDS011;66129;45.890;13.714;2023-02-28T06:40:38;10.27;;;5.55;;
77158;SDS011;66129;45.890;13.714;2023-02-28T06:43:06;15.60;;;6.95;;
77158;SDS011;66129;45.890;13.714;2023-02-28T06:45:32;15.00;;;5.78;;
77158;SDS011;66129;45.890;13.714;2023-02-28T06:48:00;11.48;;;5.80;;
77158;SDS011;66129;45.890;13.714;2023-02-28T06:50:28;9.50;;;5.63;;
77158;SDS011;66129;45.890;13.714;2023-02-28T06:52:55;8.77;;;5.25;;
77158;SDS011;66129;45.890;13.714;2023-02-28T06:55:21;9.80;;;5.68;;
77158;SDS011;66129;45.890;13.714;2023-02-28T06:57:56;11.10;;;5.80;;
77158;SDS011;66129;45.890;13.714;2023-02-28T07:00:27;9.95;;;5.57;;
77158;SDS011;66129;45.890;13.714;2023-02-28T07:02:53;13.32;;;6.18;;
77158;SDS011;66129;45.890;13.714;2023-02-28T07:05:20;9.25;;;5.28;;
77158;SDS011;66129;45.890;13.714;2023-02-28T07:07:45;10.75;;;6.03;;
77158;SDS011;66129;45.890;13.714;2023-02-28T07:10:12;13.70;;;6.15;;
77158;SDS011;66129;45.890;13.714;2023-02-28T07:12:39;9.45;;;5.22;;
77158;SDS011;66129;45.890;13.714;2023-02-28T07:15:05;25.55;;;6.75;;
77158;SDS011;66129;45.890;13.714;2023-02-28T07:17:31;13.13;;;6.00;;
77158;SDS011;66129;45.890;13.714;2023-02-28T07:20:01;8.45;;;4.88;;
77158;SDS011;66129;45.890;13.714;2023-02-28T07:22:29;11.20;;;5.72;;
77158;SDS011;66129;45.890;13.714;2023-02-28T07:24:55;8.88;;;4.43;;
77158;SDS011;66129;45.890;13.714;2023-02-28T07:27:23;12.13;;;5.25;;
77158;SDS011;66129;45.890;13.714;2023-02-28T07:29:53;11.82;;;4.63;;
77158;SDS011;66129;45.890;13.714;2023-02-28T07:32:19;10.98;;;6.00;;
77158;SDS011;66129;45.890;13.714;2023-02-28T07:34:47;11.50;;;5.93;;
77158;SDS011;66129;45.890;13.714;2023-02-28T07:37:13;13.68;;;6.00;;
77158;SDS011;66129;45.890;13.714;2023-02-28T07:39:40;8.85;;;5.18;;
77158;SDS011;66129;45.890;13.714;2023-02-28T07:42:11;10.88;;;6.50;;
77158;SDS011;66129;45.890;13.714;2023-02-28T07:44:46;9.48;;;5.20;;
77158;SDS011;66129;45.890;13.714;2023-02-28T07:57:17;15.48;;;6.47;;
77158;SDS011;66129;45.890;13.714;2023-02-28T07:59:52;14.75;;;5.57;;
77158;SDS011;66129;45.890;13.714;2023-02-28T08:02:21;13.40;;;6.35;;
77158;SDS011;66129;45.890;13.714;2023-02-28T08:04:46;11.68;;;5.30;;
77158;SDS011;66129;45.890;13.714;2023-02-28T08:07:15;9.38;;;4.85;;
77158;SDS011;66129;45.890;13.714;2023-02-28T08:09:42;11.60;;;5.45;;
77158;SDS011;66129;45.890;13.714;2023-02-28T08:12:17;10.50;;;4.68;;
77158;SDS011;66129;45.890;13.714;2023-02-28T08:14:45;8.23;;;4.70;;
77158;SDS011;66129;45.890;13.714;2023-02-28T08:17:11;10.23;;;5.72;;
77158;SDS011;66129;45.890;13.714;2023-02-28T08:19:40;9.63;;;4.45;;
77158;SDS011;66129;45.890;13.714;2023-02-28T08:22:08;5.60;;;3.53;;
77158;SDS011;66129;45.890;13.714;2023-02-28T08:24:33;9.27;;;4.70;;
77158;SDS011;66129;45.890;13.714;2023-02-28T08:27:02;7.35;;;3.85;;
77158;SDS011;66129;45.890;13.714;2023-02-28T08:29:27;6.50;;;3.85;;
77158;SDS011;66129;45.890;13.714;2023-02-28T08:31:54;8.10;;;4.45;;
77158;SDS011;66129;45.890;13.714;2023-02-28T08:34:19;12.73;;;5.40;;
77158;SDS011;66129;45.890;13.714;2023-02-28T08:36:45;12.32;;;5.85;;
77158;SDS011;66129;45.890;13.714;2023-02-28T08:39:11;8.30;;;3.63;;
77158;SDS011;66129;45.890;13.714;2023-02-28T08:41:38;9.07;;;4.40;;
77158;SDS011;66129;45.890;13.714;2023-02-28T08:44:04;7.78;;;4.43;;
77158;SDS011;66129;45.890;13.714;2023-02-28T08:46:29;7.28;;;4.32;;
77158;SDS011;66129;45.890;13.714;2023-02-28T08:48:55;8.45;;;3.63;;
77158;SDS011;66129;45.890;13.714;2023-02-28T08:51:25;6.68;;;3.92;;
77158;SDS011;66129;45.890;13.714;2023-02-28T08:53:55;8.70;;;4.32;;
77158;SDS011;66129;45.890;13.714;2023-02-28T08:56:23;13.20;;;4.60;;
77158;SDS011;66129;45.890;13.714;2023-02-28T08:58:49;9.05;;;4.35;;
77158;SDS011;66129;45.890;13.714;2023-02-28T09:01:19;10.65;;;4.93;;
77158;SDS011;66129;45.890;13.714;2023-02-28T09:03:47;16.17;;;6.32;;
77158;SDS011;66129;45.890;13.714;2023-02-28T09:06:15;9.05;;;4.55;;
77158;SDS011;66129;45.890;13.714;2023-02-28T09:08:42;9.80;;;4.15;;
77158;SDS011;66129;45.890;13.714;2023-02-28T09:11:08;9.38;;;4.22;;
77158;SDS011;66129;45.890;13.714;2023-02-28T09:13:40;11.15;;;5.70;;
77158;SDS011;66129;45.890;13.714;2023-02-28T09:16:07;11.13;;;5.38;;
77158;SDS011;66129;45.890;13.714;2023-02-28T09:18:35;10.32;;;4.22;;
77158;SDS011;66129;45.890;13.714;2023-02-28T09:21:05;9.63;;;4.00;;
77158;SDS011;66129;45.890;13.714;2023-02-28T09:23:42;11.30;;;5.70;;
77158;SDS011;66129;45.890;13.714;2023-02-28T09:29:00;8.40;;;4.78;;
77158;SDS011;66129;45.890;13.714;2023-02-28T09:31:29;8.95;;;4.47;;
77158;SDS011;66129;45.890;13.714;2023-02-28T09:33:55;8.38;;;4.10;;
77158;SDS011;66129;45.890;13.714;2023-02-28T09:36:22;6.05;;;3.75;;
77158;SDS011;66129;45.890;13.714;2023-02-28T09:39:01;10.13;;;4.57;;
77158;SDS011;66129;45.890;13.714;2023-02-28T09:41:27;8.88;;;4.53;;
77158;SDS011;66129;45.890;13.714;2023-02-28T09:44:12;7.95;;;4.35;;
77158;SDS011;66129;45.890;13.714;2023-02-28T09:46:48;9.18;;;4.28;;
77158;SDS011;66129;45.890;13.714;2023-02-28T09:49:25;9.50;;;4.80;;
77158;SDS011;66129;45.890;13.714;2023-02-28T09:54:31;7.57;;;4.38;;
77158;SDS011;66129;45.890;13.714;2023-02-28T09:59:54;10.75;;;5.55;;
77158;SDS011;66129;45.890;13.714;2023-02-28T10:02:58;11.18;;;4.05;;
77158;SDS011;66129;45.890;13.714;2023-02-28T10:08:36;8.20;;;4.90;;
77158;SDS011;66129;45.890;13.714;2023-02-28T10:11:11;9.05;;;3.92;;
77158;SDS011;66129;45.890;13.714;2023-02-28T10:13:46;10.38;;;5.38;;
77158;SDS011;66129;45.890;13.714;2023-02-28T10:16:43;7.90;;;4.38;;
77158;SDS011;66129;45.890;13.714;2023-02-28T10:19:56;8.27;;;3.85;;
77158;SDS011;66129;45.890;13.714;2023-02-28T10:25:35;8.40;;;4.65;;
77158;SDS011;66129;45.890;13.714;2023-02-28T10:30:36;8.80;;;4.68;;
77158;SDS011;66129;45.890;13.714;2023-02-28T10:33:03;6.90;;;4.38;;
77158;SDS011;66129;45.890;13.714;2023-02-28T10:35:42;7.25;;;4.72;;
77158;SDS011;66129;45.890;13.714;2023-02-28T10:38:27;8.90;;;4.65;;
77158;SDS011;66129;45.890;13.714;2023-02-28T10:41:04;8.10;;;4.78;;
77158;SDS011;66129;45.890;13.714;2023-02-28T10:43:33;6.53;;;4.45;;
77158;SDS011;66129;45.890;13.714;2023-02-28T10:48:38;15.95;;;6.40;;
77158;SDS011;66129;45.890;13.714;2023-02-28T10:51:16;7.03;;;4.50;;
77158;SDS011;66129;45.890;13.714;2023-02-28T10:53:48;11.02;;;4.60;;
77158;SDS011;66129;45.890;13.714;2023-02-28T10:56:17;8.73;;;4.07;;
77158;SDS011;66129;45.890;13.714;2023-02-28T10:59:03;6.40;;;4.13;;
77158;SDS011;66129;45.890;13.714;2023-02-28T11:01:51;7.03;;;4.07;;
77158;SDS011;66129;45.890;13.714;2023-02-28T11:09:28;7.78;;;4.50;;
77158;SDS011;66129;45.890;13.714;2023-02-28T11:11:54;8.93;;;4.88;;
77158;SDS011;66129;45.890;13.714;2023-02-28T11:14:21;7.75;;;4.53;;
77158;SDS011;66129;45.890;13.714;2023-02-28T11:16:50;8.77;;;5.32;;
77158;SDS011;66129;45.890;13.714;2023-02-28T11:19:19;7.15;;;4.13;;
77158;SDS011;66129;45.890;13.714;2023-02-28T11:21:56;9.63;;;5.15;;
77158;SDS011;66129;45.890;13.714;2023-02-28T11:24:27;8.35;;;4.68;;
77158;SDS011;66129;45.890;13.714;2023-02-28T11:26:56;8.85;;;4.65;;
77158;SDS011;66129;45.890;13.714;2023-02-28T11:29:23;8.52;;;4.95;;
77158;SDS011;66129;45.890;13.714;2023-02-28T11:32:05;7.82;;;4.78;;
77158;SDS011;66129;45.890;13.714;2023-02-28T11:34:41;8.60;;;4.68;;
77158;SDS011;66129;45.890;13.714;2023-02-28T11:37:12;8.25;;;4.88;;
77158;SDS011;66129;45.890;13.714;2023-02-28T11:39:39;7.25;;;4.88;;
77158;SDS011;66129;45.890;13.714;2023-02-28T11:47:59;8.88;;;4.78;;
77158;SDS011;66129;45.890;13.714;2023-02-28T11:53:26;11.50;;;4.75;;
77158;SDS011;66129;45.890;13.714;2023-02-28T11:58:46;9.55;;;5.07;;
77158;SDS011;66129;45.890;13.714;2023-02-28T12:12:43;10.88;;;4.82;;
77158;SDS011;66129;45.890;13.714;2023-02-28T12:24:03;8.90;;;4.88;;
77158;SDS011;66129;45.890;13.714;2023-02-28T12:26:39;13.07;;;5.30;;
77158;SDS011;66129;45.890;13.714;2023-02-28T12:29:17;7.43;;;4.78;;
77158;SDS011;66129;45.890;13.714;2023-02-28T12:35:03;9.02;;;5.22;;
77158;SDS011;66129;45.890;13.714;2023-02-28T12:40:15;10.32;;;4.57;;
77158;SDS011;66129;45.890;13.714;2023-02-28T12:42:46;8.00;;;4.43;;
77158;SDS011;66129;45.890;13.714;2023-02-28T12:45:23;8.38;;;4.93;;
77158;SDS011;66129;45.890;13.714;2023-02-28T12:47:55;8.45;;;5.13;;
77158;SDS011;66129;45.890;13.714;2023-02-28T12:50:25;7.53;;;5.05;;
77158;SDS011;66129;45.890;13.714;2023-02-28T12:52:58;8.88;;;5.38;;
77158;SDS011;66129;45.890;13.714;2023-02-28T12:58:08;9.10;;;5.55;;
77158;SDS011;66129;45.890;13.714;2023-02-28T13:00:38;10.82;;;5.00;;
77158;SDS011;66129;45.890;13.714;2023-02-28T13:11:44;9.32;;;5.80;;
77158;SDS011;66129;45.890;13.714;2023-02-28T13:15:00;9.05;;;4.82;;
77158;SDS011;66129;45.890;13.714;2023-02-28T13:20:14;10.85;;;6.13;;
77158;SDS011;66129;45.890;13.714;2023-02-28T13:22:44;6.82;;;4.80;;
77158;SDS011;66129;45.890;13.714;2023-02-28T13:27:59;9.10;;;4.57;;
77158;SDS011;66129;45.890;13.714;2023-02-28T13:36:10;7.63;;;5.15;;
77158;SDS011;66129;45.890;13.714;2023-02-28T13:38:49;7.85;;;5.40;;
77158;SDS011;66129;45.890;13.714;2023-02-28T13:57:20;8.73;;;4.65;;
77158;SDS011;66129;45.890;13.714;2023-02-28T14:05:33;15.57;;;5.60;;
77158;SDS011;66129;45.890;13.714;2023-02-28T14:08:03;8.18;;;5.18;;
77158;SDS011;66129;45.890;13.714;2023-02-28T14:10:41;11.50;;;4.13;;
77158;SDS011;66129;45.890;13.714;2023-02-28T14:15:44;8.07;;;5.35;;
77158;SDS011;66129;45.890;13.714;2023-02-28T14:37:30;13.32;;;6.18;;
77158;SDS011;66129;45.890;13.714;2023-02-28T14:40:01;9.00;;;5.72;;
77158;SDS011;66129;45.890;13.714;2023-02-28T14:44:57;12.05;;;5.68;;
77158;SDS011;66129;45.890;13.714;2023-02-28T14:47:27;10.55;;;7.40;;
77158;SDS011;66129;45.890;13.714;2023-02-28T14:49:56;12.02;;;6.57;;
77158;SDS011;66129;45.890;13.714;2023-02-28T14:52:24;11.90;;;6.70;;
77158;SDS011;66129;45.890;13.714;2023-02-28T14:55:05;14.73;;;9.05;;
77158;SDS011;66129;45.890;13.714;2023-02-28T14:57:51;13.68;;;7.05;;
77158;SDS011;66129;45.890;13.714;2023-02-28T15:00:39;12.15;;;6.75;;
77158;SDS011;66129;45.890;13.714;2023-02-28T15:06:19;15.00;;;8.07;;
77158;SDS011;66129;45.890;13.714;2023-02-28T15:09:01;10.02;;;5.20;;
77158;SDS011;66129;45.890;13.714;2023-02-28T15:11:48;13.77;;;8.20;;
77158;SDS011;66129;45.890;13.714;2023-02-28T15:14:22;11.15;;;5.75;;
77158;SDS011;66129;45.890;13.714;2023-02-28T15:22:33;11.65;;;6.50;;
77158;SDS011;66129;45.890;13.714;2023-02-28T15:25:04;11.02;;;6.50;;
77158;SDS011;66129;45.890;13.714;2023-02-28T15:27:33;11.63;;;6.72;;
77158;SDS011;66129;45.890;13.714;2023-02-28T15:30:24;9.35;;;5.63;;
77158;SDS011;66129;45.890;13.714;2023-02-28T15:35:38;12.77;;;6.65;;
77158;SDS011;66129;45.890;13.714;2023-02-28T15:38:24;11.18;;;6.80;;
77158;SDS011;66129;45.890;13.714;2023-02-28T15:40:53;10.23;;;5.72;;
77158;SDS011;66129;45.890;13.714;2023-02-28T15:43:35;11.20;;;6.63;;
77158;SDS011;66129;45.890;13.714;2023-02-28T15:46:03;9.25;;;5.78;;
77158;SDS011;66129;45.890;13.714;2023-02-28T15:53:48;13.07;;;6.75;;
77158;SDS011;66129;45.890;13.714;2023-02-28T15:56:23;8.77;;;6.10;;
77158;SDS011;66129;45.890;13.714;2023-02-28T15:58:58;11.18;;;6.85;;
77158;SDS011;66129;45.890;13.714;2023-02-28T16:01:29;10.38;;;7.05;;
77158;SDS011;66129;45.890;13.714;2023-02-28T16:03:59;11.52;;;6.80;;
77158;SDS011;66129;45.890;13.714;2023-02-28T16:08:53;12.55;;;7.75;;
77158;SDS011;66129;45.890;13.714;2023-02-28T16:11:20;12.40;;;7.15;;
77158;SDS011;66129;45.890;13.714;2023-02-28T16:13:47;11.90;;;6.75;;
77158;SDS011;66129;45.890;13.714;2023-02-28T16:16:17;11.27;;;6.72;;
77158;SDS011;66129;45.890;13.714;2023-02-28T16:18:47;10.65;;;6.88;;
77158;SDS011;66129;45.890;13.714;2023-02-28T16:21:13;14.20;;;7.05;;
77158;SDS011;66129;45.890;13.714;2023-02-28T16:23:38;12.82;;;7.05;;
77158;SDS011;66129;45.890;13.714;2023-02-28T16:26:04;9.55;;;6.97;;
77158;SDS011;66129;45.890;13.714;2023-02-28T16:28:35;11.00;;;6.00;;
77158;SDS011;66129;45.890;13.714;2023-02-28T16:33:33;11.35;;;6.00;;
77158;SDS011;66129;45.890;13.714;2023-02-28T16:35:59;10.88;;;5.57;;
77158;SDS011;66129;45.890;13.714;2023-02-28T16:38:25;12.25;;;6.40;;
77158;SDS011;66129;45.890;13.714;2023-02-28T16:40:55;11.25;;;4.95;;
77158;SDS011;66129;45.890;13.714;2023-02-28T16:43:24;9.32;;;5.78;;
77158;SDS011;66129;45.890;13.714;2023-02-28T16:45:57;9.68;;;5.95;;
77158;SDS011;66129;45.890;13.714;2023-02-28T16:48:25;9.32;;;6.13;;
77158;SDS011;66129;45.890;13.714;2023-02-28T16:50:53;11.95;;;6.10;;
77158;SDS011;66129;45.890;13.714;2023-02-28T16:53:18;11.82;;;7.28;;
77158;SDS011;66129;45.890;13.714;2023-02-28T16:55:47;13.18;;;8.32;;
77158;SDS011;66129;45.890;13.714;2023-02-28T16:58:19;10.73;;;7.30;;
77158;SDS011;66129;45.890;13.714;2023-02-28T17:00:46;12.43;;;5.70;;
77158;SDS011;66129;45.890;13.714;2023-02-28T17:03:25;14.07;;;5.72;;
77158;SDS011;66129;45.890;13.714;2023-02-28T17:05:54;14.73;;;6.90;;
77158;SDS011;66129;45.890;13.714;2023-02-28T17:08:35;11.50;;;6.47;;
77158;SDS011;66129;45.890;13.714;2023-02-28T17:11:00;13.68;;;8.43;;
77158;SDS011;66129;45.890;13.714;2023-02-28T17:13:27;20.42;;;7.38;;
77158;SDS011;66129;45.890;13.714;2023-02-28T17:15:53;12.93;;;7.25;;
77158;SDS011;66129;45.890;13.714;2023-02-28T17:18:18;11.20;;;6.03;;
77158;SDS011;66129;45.890;13.714;2023-02-28T17:20:52;13.15;;;5.82;;
77158;SDS011;66129;45.890;13.714;2023-02-28T17:25:43;25.67;;;9.15;;
77158;SDS011;66129;45.890;13.714;2023-02-28T17:28:18;18.58;;;7.90;;
77158;SDS011;66129;45.890;13.714;2023-02-28T17:30:57;16.95;;;8.02;;
77158;SDS011;66129;45.890;13.714;2023-02-28T17:36:25;15.10;;;7.00;;
77158;SDS011;66129;45.890;13.714;2023-02-28T17:39:00;13.57;;;8.48;;
77158;SDS011;66129;45.890;13.714;2023-02-28T17:41:27;12.25;;;7.78;;
77158;SDS011;66129;45.890;13.714;2023-02-28T17:43:57;18.67;;;8.43;;
77158;SDS011;66129;45.890;13.714;2023-02-28T17:46:23;20.40;;;7.57;;
77158;SDS011;66129;45.890;13.714;2023-02-28T17:48:53;11.50;;;6.93;;
77158;SDS011;66129;45.890;13.714;2023-02-28T17:51:19;16.83;;;8.40;;
77158;SDS011;66129;45.890;13.714;2023-02-28T17:53:46;14.05;;;6.93;;
77158;SDS011;66129;45.890;13.714;2023-02-28T17:56:15;19.45;;;8.40;;
77158;SDS011;66129;45.890;13.714;2023-02-28T17:58:46;15.55;;;8.00;;
77158;SDS011;66129;45.890;13.714;2023-02-28T18:04:10;13.18;;;7.50;;
77158;SDS011;66129;45.890;13.714;2023-02-28T18:06:41;14.57;;;6.97;;
77158;SDS011;66129;45.890;13.714;2023-02-28T18:09:33;17.27;;;9.77;;
77158;SDS011;66129;45.890;13.714;2023-02-28T18:12:04;12.38;;;7.10;;